Pagrindinis puslapis
METAR-TAF:

METAR-TAF

Oro uostai :

La Carlota, Venesuela

platuma: 10-30N, ilguma: 066-53W, Aukštis: 835 m

Dabartinis oras

Ataskaita buvo paskelbta 22 minutes, ne 13:02 UTC
Vėjas 2 kt iš Rytų
Temperatūra 20°C
Drėgmė 73%
Slėgis 1019 hPa

METAR: SVFM 281302Z AUTO 08002KT NCD 20/15 Q1019

Laikas: 09:24 (13:24 UTC)


TAF: trūkstamas

Orai ataskaitas ir orų prognozės (METAR, TAF).

turimą stotys yra geltonos ir raudonos taškus žemėlapyje.

Perkelti pele per norėdami pamatyti stoties vardą.

Tada spustelėkite, norėdami matyti oro stebėjimo ir prognozės.

Norėdami pakeisti žemėlapį: spustelėkite ant žalios mygtukų su juodo kryžiaus žemyn,; žalią mygtuką su brūkšneliu, jei norite nutolinti; arba žalių rodyklių gretimoms žemėlapius.


METAR-TAF: